createdAt,value
2023-01-25T00:02:44.611Z,113.38
2023-01-25T00:10:04.651Z,114.95
2023-01-25T00:17:22.796Z,120.18
2023-01-25T00:24:40.895Z,118.78
2023-01-25T00:32:43.420Z,107.43
2023-01-25T00:40:01.715Z,107.93
2023-01-25T00:47:21.309Z,113.10
2023-01-25T00:54:39.687Z,109.18
2023-01-25T01:01:58.723Z,119.45
2023-01-25T01:09:19.602Z,110.63
2023-01-25T01:16:38.105Z,103.55
2023-01-25T01:23:56.689Z,83.30
2023-01-25T01:31:18.616Z,103.45
2023-01-25T01:38:46.121Z,110.35
2023-01-25T01:46:05.353Z,108.10
2023-01-25T02:00:47.201Z,80.43
2023-01-25T02:08:06.874Z,56.63
2023-01-25T02:15:29.376Z,48.45
2023-01-25T02:22:54.196Z,52.30
2023-01-25T02:30:14.156Z,41.90
2023-01-25T02:37:32.460Z,84.28
2023-01-25T02:44:51.461Z,92.47
2023-01-25T02:52:11.113Z,56.55
2023-01-25T02:59:29.348Z,103.22
2023-01-25T03:06:51.962Z,107.53
2023-01-25T03:14:12.199Z,103.78
2023-01-25T03:21:30.933Z,92.57
2023-01-25T03:28:49.405Z,100.25
2023-01-25T03:36:10.735Z,94.72
2023-01-25T03:43:29.963Z,106.70
2023-01-25T03:50:52.494Z,57.80
2023-01-25T03:58:13.417Z,47.35
2023-01-25T04:05:32.320Z,78.57
2023-01-25T04:12:51.670Z,87.28
2023-01-25T04:20:13.060Z,95.47
2023-01-25T04:27:32.303Z,101.65
2023-01-25T04:35:03.763Z,116.40
2023-01-25T04:42:24.321Z,106.57
2023-01-25T04:49:46.331Z,72.45
2023-01-25T04:57:08.361Z,51.92
2023-01-25T05:04:29.693Z,59.58
2023-01-25T05:11:48.331Z,49.30
2023-01-25T05:19:15.818Z,52.60
2023-01-25T05:27:03.751Z,62.00
2023-01-25T05:34:59.304Z,48.45
2023-01-25T05:42:20.223Z,55.70
2023-01-25T05:49:39.186Z,71.47
2023-01-25T05:57:00.285Z,91.68
2023-01-25T06:04:20.327Z,98.50
2023-01-25T06:11:39.089Z,92.65
2023-01-25T06:18:57.484Z,87.82
2023-01-25T06:26:38.729Z,51.15
2023-01-25T06:33:59.930Z,63.38
2023-01-25T06:41:19.021Z,79.57
2023-01-25T06:48:38.857Z,67.55
2023-01-25T06:56:00.989Z,44.35
2023-01-25T07:03:19.214Z,43.03
2023-01-25T07:10:38.805Z,42.15
2023-01-25T07:18:03.242Z,48.17
2023-01-25T07:25:29.827Z,45.17
2023-01-25T07:32:49.417Z,35.67
2023-01-25T07:40:08.820Z,38.80
2023-01-25T07:47:26.988Z,42.53
2023-01-25T07:54:48.329Z,42.97
2023-01-25T08:02:09.344Z,37.92
2023-01-25T08:09:28.600Z,38.55
2023-01-25T08:16:48.133Z,37.13
2023-01-25T08:24:07.917Z,37.95
2023-01-25T08:31:28.353Z,37.47
2023-01-25T08:38:48.585Z,40.85
2023-01-25T08:46:07.445Z,38.22
2023-01-25T08:53:25.800Z,39.65
2023-01-25T09:00:45.560Z,39.65
2023-01-25T09:08:05.482Z,35.75
2023-01-25T09:15:24.229Z,33.75
2023-01-25T09:22:43.795Z,37.03
2023-01-25T09:30:03.278Z,34.15
2023-01-25T09:37:22.570Z,23.50
2023-01-25T09:44:52.486Z,33.22
2023-01-25T09:52:22.677Z,26.83
2023-01-25T09:59:42.046Z,25.42
2023-01-25T10:07:08.068Z,23.35
2023-01-25T10:14:26.723Z,24.55
2023-01-25T10:21:47.200Z,31.40
2023-01-25T10:29:12.581Z,26.30
2023-01-25T10:36:31.974Z,30.45
2023-01-25T10:44:10.325Z,30.15
2023-01-25T10:51:35.537Z,30.80
2023-01-25T10:58:55.560Z,27.20
2023-01-25T11:06:14.344Z,26.77
2023-01-25T11:13:35.387Z,27.75
2023-01-25T11:21:06.230Z,25.90
2023-01-25T11:28:25.497Z,26.88
2023-01-25T11:36:03.451Z,28.13
2023-01-25T11:43:33.989Z,28.77
2023-01-25T11:51:00.821Z,24.83
2023-01-25T11:58:36.098Z,27.98
2023-01-25T12:06:00.538Z,29.10
2023-01-25T12:13:25.566Z,30.27
2023-01-25T12:21:17.494Z,29.27
2023-01-25T12:28:45.888Z,29.25
2023-01-25T12:36:08.614Z,29.37
2023-01-25T12:43:32.059Z,27.20
2023-01-25T12:58:26.505Z,29.52
2023-01-25T13:05:57.758Z,35.63
2023-01-25T13:13:25.383Z,28.73
2023-01-25T13:20:50.883Z,36.53
2023-01-25T13:28:42.973Z,29.35
2023-01-25T13:36:45.382Z,32.67
2023-01-25T13:44:28.464Z,33.17
2023-01-25T13:51:47.940Z,28.77
2023-01-25T13:59:06.423Z,26.55
2023-01-25T14:06:28.007Z,30.25
2023-01-25T14:13:57.202Z,25.42
2023-01-25T14:21:18.436Z,28.50
2023-01-25T14:28:37.962Z,30.02
2023-01-25T14:36:03.490Z,31.33
2023-01-25T14:43:31.115Z,28.65
2023-01-25T14:50:50.821Z,33.90
2023-01-25T14:58:14.425Z,32.88
2023-01-25T15:05:33.713Z,30.27
2023-01-25T15:13:13.295Z,30.75
2023-01-25T15:20:38.006Z,33.10
2023-01-25T15:27:56.312Z,35.08
2023-01-25T15:35:19.363Z,35.38
2023-01-25T15:42:37.589Z,31.75
2023-01-25T15:49:55.849Z,36.40
2023-01-25T15:57:22.046Z,31.95
2023-01-25T16:04:42.372Z,39.35
2023-01-25T16:12:02.837Z,42.25
2023-01-25T16:19:25.593Z,37.60
2023-01-25T16:26:46.567Z,24.93
2023-01-25T16:34:05.167Z,33.08
2023-01-25T16:41:24.799Z,39.28
2023-01-25T16:48:42.994Z,36.08
2023-01-25T16:56:01.168Z,37.92
2023-01-25T17:03:20.766Z,41.83
2023-01-25T17:10:39.408Z,35.67
2023-01-25T17:18:00.130Z,41.65
2023-01-25T17:25:20.586Z,41.85
2023-01-25T17:32:38.911Z,47.78
2023-01-25T17:39:57.129Z,39.97
2023-01-25T17:47:16.851Z,43.03
2023-01-25T17:54:36.413Z,40.88
2023-01-25T18:01:54.730Z,46.83
2023-01-25T18:09:14.291Z,39.78
2023-01-25T18:16:33.834Z,46.20
2023-01-25T18:23:52.792Z,52.28
2023-01-25T18:31:12.900Z,51.35
2023-01-25T18:38:32.945Z,48.78
2023-01-25T18:45:55.746Z,48.13
2023-01-25T18:53:17.730Z,48.80
2023-01-25T19:00:36.311Z,50.03
2023-01-25T19:07:54.505Z,51.58
2023-01-25T19:15:14.259Z,40.22
2023-01-25T19:22:32.679Z,44.00
2023-01-25T19:29:51.649Z,39.17
2023-01-25T19:37:11.288Z,40.05
2023-01-25T19:44:29.911Z,41.55
2023-01-25T19:51:53.257Z,45.10
2023-01-25T19:59:15.052Z,43.42
2023-01-25T20:06:33.809Z,43.60
2023-01-25T20:13:54.244Z,34.22
2023-01-25T20:21:15.403Z,36.22
2023-01-25T20:28:34.753Z,43.40
2023-01-25T20:35:55.156Z,43.30
2023-01-25T20:43:14.728Z,50.60
2023-01-25T20:50:32.885Z,48.70
2023-01-25T20:57:53.490Z,49.20
2023-01-25T21:05:13.848Z,58.53
2023-01-25T21:12:33.558Z,63.53
2023-01-25T21:19:51.933Z,59.30
2023-01-25T21:27:11.845Z,137.77
2023-01-25T21:34:31.091Z,61.10
2023-01-25T21:41:49.399Z,59.55
2023-01-25T21:49:28.057Z,55.78
2023-01-25T21:56:49.260Z,56.70
2023-01-25T22:04:08.809Z,62.50
2023-01-25T22:11:27.258Z,55.72
2023-01-25T22:18:45.789Z,53.92
2023-01-25T22:26:08.062Z,53.88
2023-01-25T22:33:26.332Z,55.63
2023-01-25T22:40:44.761Z,59.83
2023-01-25T22:48:04.289Z,61.72
2023-01-25T22:55:22.536Z,60.60
2023-01-25T23:02:40.715Z,62.58
2023-01-25T23:10:00.565Z,61.13
2023-01-25T23:17:48.151Z,60.55
2023-01-25T23:25:09.988Z,65.88
2023-01-25T23:32:29.081Z,59.38
2023-01-25T23:39:47.705Z,68.30
2023-01-25T23:47:07.602Z,63.88
2023-01-25T23:54:27.032Z,70.82
